createdAt,value
2023-02-07T00:00:59.992Z,17.26
2023-02-07T00:02:03.258Z,17.16
2023-02-07T00:03:06.475Z,17.42
2023-02-07T00:04:09.490Z,16.14
2023-02-07T00:05:13.333Z,17.48
2023-02-07T00:06:19.774Z,16.68
2023-02-07T00:07:22.715Z,17.18
2023-02-07T00:08:25.764Z,16.85
2023-02-07T00:09:28.991Z,17.17
2023-02-07T00:10:32.640Z,16.30
2023-02-07T00:11:38.600Z,15.29
2023-02-07T00:12:41.999Z,15.66
2023-02-07T00:13:45.553Z,15.76
2023-02-07T00:14:48.524Z,15.02
2023-02-07T00:15:51.638Z,16.50
2023-02-07T00:16:54.830Z,15.54
2023-02-07T00:17:58.036Z,16.11
2023-02-07T00:19:01.181Z,16.22
2023-02-07T00:20:05.246Z,15.30
2023-02-07T00:21:11.712Z,15.89
2023-02-07T00:22:14.803Z,15.49
2023-02-07T00:23:17.860Z,17.28
2023-02-07T00:24:21.014Z,17.06
2023-02-07T00:25:24.186Z,16.28
2023-02-07T00:26:27.675Z,15.83
2023-02-07T00:27:30.763Z,15.86
2023-02-07T00:28:34.345Z,16.84
2023-02-07T00:29:38.131Z,16.11
2023-02-07T00:30:42.188Z,16.80
2023-02-07T00:31:45.368Z,16.02
2023-02-07T00:32:49.689Z,16.54
2023-02-07T00:33:56.011Z,16.32
2023-02-07T00:34:59.193Z,16.39
2023-02-07T00:36:05.002Z,17.12
2023-02-07T00:37:09.299Z,17.14
2023-02-07T00:38:12.371Z,17.31
2023-02-07T00:39:16.738Z,17.04
2023-02-07T00:40:19.884Z,16.14
2023-02-07T00:41:23.113Z,17.76
2023-02-07T00:42:26.270Z,16.67
2023-02-07T00:43:30.411Z,16.59
2023-02-07T00:44:33.416Z,17.64
2023-02-07T00:45:36.981Z,16.89
2023-02-07T00:46:40.357Z,18.01
2023-02-07T00:47:43.532Z,17.11
2023-02-07T00:48:46.614Z,17.11
2023-02-07T00:49:49.754Z,17.86
2023-02-07T00:50:52.835Z,16.44
2023-02-07T00:51:55.972Z,17.80
2023-02-07T00:52:59.027Z,16.94
2023-02-07T00:54:02.521Z,17.44
2023-02-07T00:55:05.996Z,16.32
2023-02-07T00:56:09.563Z,16.55
2023-02-07T00:57:12.731Z,17.32
2023-02-07T00:58:16.088Z,16.53
2023-02-07T00:59:19.266Z,17.03
2023-02-07T01:00:22.413Z,16.09
2023-02-07T01:01:27.033Z,17.94
2023-02-07T01:02:31.163Z,17.03
2023-02-07T01:03:34.276Z,16.99
2023-02-07T01:04:37.480Z,16.20
2023-02-07T01:05:41.047Z,16.50
2023-02-07T01:06:44.199Z,16.48
2023-02-07T01:07:47.357Z,17.21
2023-02-07T01:08:50.510Z,16.93
2023-02-07T01:09:53.674Z,15.77
2023-02-07T01:10:57.028Z,15.32
2023-02-07T01:12:00.206Z,15.83
2023-02-07T01:13:03.156Z,16.10
2023-02-07T01:14:07.309Z,16.24
2023-02-07T01:15:10.520Z,16.07
2023-02-07T01:16:26.534Z,16.76
2023-02-07T01:17:29.719Z,15.43
2023-02-07T01:18:32.756Z,14.84
2023-02-07T01:19:35.779Z,16.02
2023-02-07T01:20:39.063Z,16.09
2023-02-07T01:21:42.130Z,16.42
2023-02-07T01:22:45.434Z,16.03
2023-02-07T01:23:48.590Z,16.44
2023-02-07T01:24:54.468Z,15.51
2023-02-07T01:25:57.631Z,16.36
2023-02-07T01:27:01.526Z,16.93
2023-02-07T01:28:04.844Z,15.86
2023-02-07T01:29:08.381Z,17.52
2023-02-07T01:30:12.854Z,16.01
2023-02-07T01:31:16.193Z,17.35
2023-02-07T01:32:19.235Z,16.67
2023-02-07T01:33:22.799Z,16.15
2023-02-07T01:34:25.998Z,15.84
2023-02-07T01:35:29.080Z,17.16
2023-02-07T01:36:32.264Z,15.91
2023-02-07T01:37:35.541Z,17.23
2023-02-07T01:38:38.688Z,17.62
2023-02-07T01:39:42.350Z,16.47
2023-02-07T01:40:45.436Z,17.27
2023-02-07T01:41:48.595Z,15.39
2023-02-07T01:42:51.749Z,17.37
2023-02-07T01:43:58.476Z,17.01
2023-02-07T01:45:05.124Z,17.58
2023-02-07T01:46:08.729Z,16.82
2023-02-07T01:47:15.198Z,16.77
2023-02-07T01:48:28.486Z,17.18
2023-02-07T01:49:35.228Z,17.00
2023-02-07T01:50:40.700Z,17.17
2023-02-07T01:51:50.241Z,17.14
2023-02-07T01:52:54.136Z,18.47
2023-02-07T01:54:00.745Z,17.73
2023-02-07T01:55:08.132Z,18.21
2023-02-07T01:56:29.425Z,17.83
2023-02-07T01:57:22.409Z,19.41
2023-02-07T01:58:27.492Z,19.58
2023-02-07T01:59:33.730Z,19.14
2023-02-07T02:00:37.325Z,18.62
2023-02-07T02:01:41.650Z,18.71
2023-02-07T02:02:44.922Z,19.04
2023-02-07T02:03:51.961Z,18.46
2023-02-07T02:04:55.374Z,17.31
2023-02-07T02:05:58.743Z,17.61
2023-02-07T02:07:02.101Z,17.66
2023-02-07T02:08:24.505Z,17.96
2023-02-07T02:09:28.993Z,20.25
2023-02-07T02:10:44.637Z,18.31
2023-02-07T02:12:03.367Z,17.78
2023-02-07T02:13:27.743Z,15.95
2023-02-07T02:14:54.129Z,16.82
2023-02-07T02:16:03.877Z,18.90
2023-02-07T02:17:22.414Z,17.92
2023-02-07T02:19:02.210Z,17.97
2023-02-07T02:20:29.692Z,18.16
2023-02-07T02:21:54.363Z,16.20
2023-02-07T02:23:22.210Z,15.23
2023-02-07T02:24:40.590Z,16.50
2023-02-07T02:25:57.216Z,17.48
2023-02-07T02:27:20.324Z,17.36
2023-02-07T02:28:27.047Z,17.38
2023-02-07T02:30:05.330Z,18.44
2023-02-07T02:31:28.576Z,18.05
2023-02-07T02:32:56.390Z,17.11
2023-02-07T02:34:15.400Z,17.34
2023-02-07T02:35:23.937Z,16.66
2023-02-07T02:36:33.290Z,16.89
2023-02-07T02:37:58.676Z,16.94
2023-02-07T02:39:11.288Z,17.23
2023-02-07T02:40:53.277Z,17.13
2023-02-07T02:42:24.970Z,16.34
2023-02-07T02:43:37.429Z,16.35
2023-02-07T02:45:02.699Z,16.54
2023-02-07T02:46:15.283Z,16.60
2023-02-07T02:47:20.559Z,16.24
2023-02-07T02:48:24.436Z,17.18
2023-02-07T02:49:30.000Z,17.32
2023-02-07T02:50:34.882Z,16.87
2023-02-07T02:51:38.049Z,16.82
2023-02-07T02:52:50.745Z,16.69
2023-02-07T02:53:56.973Z,17.24
2023-02-07T02:55:01.954Z,17.23
2023-02-07T02:56:14.168Z,18.04
2023-02-07T02:57:38.977Z,17.92
2023-02-07T02:59:02.288Z,16.81
2023-02-07T03:00:26.817Z,17.03
2023-02-07T03:01:52.752Z,16.58
2023-02-07T03:03:14.799Z,16.06
2023-02-07T03:04:30.802Z,15.80
2023-02-07T03:05:43.351Z,16.12
2023-02-07T03:07:01.842Z,16.41
2023-02-07T03:08:08.773Z,16.48
2023-02-07T03:09:39.513Z,18.11
2023-02-07T03:11:01.484Z,17.44
2023-02-07T03:12:17.110Z,17.46
2023-02-07T03:13:29.600Z,17.29
2023-02-07T03:14:45.518Z,17.98
2023-02-07T03:16:20.889Z,17.19
2023-02-07T03:17:30.585Z,17.15
2023-02-07T03:18:49.153Z,17.89
2023-02-07T03:20:07.694Z,17.79
2023-02-07T03:21:23.471Z,17.99
2023-02-07T03:22:29.747Z,18.72
2023-02-07T03:23:33.938Z,18.21
2023-02-07T03:24:40.575Z,18.36
2023-02-07T03:25:44.897Z,19.70
2023-02-07T03:26:49.974Z,19.10
2023-02-07T03:27:55.704Z,18.53
2023-02-07T03:29:00.371Z,18.68
2023-02-07T03:30:07.195Z,18.22
2023-02-07T03:31:13.813Z,18.91
2023-02-07T03:32:19.661Z,19.03
2023-02-07T03:33:25.346Z,20.44
2023-02-07T03:34:37.721Z,19.84
2023-02-07T03:35:44.455Z,18.58
2023-02-07T03:36:57.178Z,18.64
2023-02-07T03:38:02.667Z,19.12
2023-02-07T03:39:06.020Z,19.33
2023-02-07T03:40:11.007Z,19.86
2023-02-07T03:41:20.329Z,20.03
2023-02-07T03:42:32.734Z,20.74
2023-02-07T03:43:38.683Z,19.29
2023-02-07T03:44:42.677Z,18.97
2023-02-07T03:45:45.750Z,19.40
2023-02-07T03:46:50.460Z,20.14
2023-02-07T03:47:53.510Z,20.88
2023-02-07T03:48:56.587Z,20.97
2023-02-07T03:49:59.666Z,20.91
2023-02-07T03:51:02.817Z,20.91
2023-02-07T03:52:06.042Z,20.66
2023-02-07T03:53:09.223Z,20.16
2023-02-07T03:54:12.641Z,20.49
2023-02-07T03:55:15.842Z,20.27
2023-02-07T03:56:19.554Z,20.66
2023-02-07T03:57:22.624Z,20.04
2023-02-07T03:58:25.779Z,19.32
2023-02-07T03:59:29.237Z,21.57
2023-02-07T04:00:32.626Z,20.31
2023-02-07T04:02:47.766Z,19.52
2023-02-07T04:03:50.919Z,20.16
2023-02-07T04:04:54.204Z,20.06
2023-02-07T04:05:57.155Z,20.44
2023-02-07T04:07:00.207Z,19.79
2023-02-07T04:08:03.647Z,20.51
2023-02-07T04:09:07.120Z,19.90
2023-02-07T04:10:11.584Z,19.92
2023-02-07T04:11:14.831Z,20.35
2023-02-07T04:12:17.912Z,21.59
2023-02-07T04:13:20.997Z,19.95
2023-02-07T04:14:24.245Z,20.14
2023-02-07T04:15:27.325Z,19.63
2023-02-07T04:16:30.335Z,19.56
2023-02-07T04:17:33.454Z,19.96
2023-02-07T04:18:36.406Z,20.45
2023-02-07T04:19:39.446Z,20.16
2023-02-07T04:20:42.523Z,18.90
2023-02-07T04:21:45.610Z,18.70
2023-02-07T04:22:48.774Z,19.91
2023-02-07T04:23:51.823Z,19.50
2023-02-07T04:24:54.882Z,19.35
2023-02-07T04:25:58.163Z,19.47
2023-02-07T04:27:01.313Z,17.84
2023-02-07T04:28:04.408Z,18.27
2023-02-07T04:29:07.413Z,19.23
2023-02-07T04:30:11.580Z,18.71
2023-02-07T04:31:14.540Z,18.65
2023-02-07T04:32:17.706Z,19.93
2023-02-07T04:33:21.021Z,19.12
2023-02-07T04:34:24.121Z,20.24
2023-02-07T04:35:27.196Z,20.12
2023-02-07T04:36:30.763Z,19.69
2023-02-07T04:37:33.828Z,20.24
2023-02-07T04:38:36.867Z,19.56
2023-02-07T04:39:39.830Z,19.62
2023-02-07T04:40:42.785Z,20.70
2023-02-07T04:41:45.938Z,20.26
2023-02-07T04:42:48.991Z,19.48
2023-02-07T04:43:52.251Z,20.16
2023-02-07T04:44:55.335Z,21.84
2023-02-07T04:45:58.449Z,19.43
2023-02-07T04:47:01.491Z,21.42
2023-02-07T04:48:04.920Z,19.44
2023-02-07T04:49:08.008Z,19.41
2023-02-07T04:50:11.814Z,20.15
2023-02-07T04:51:15.606Z,20.73
2023-02-07T04:52:18.597Z,21.03
2023-02-07T04:53:21.857Z,19.57
2023-02-07T04:54:24.942Z,19.23
2023-02-07T04:55:28.027Z,19.38
2023-02-07T04:56:31.094Z,19.73
2023-02-07T04:57:34.241Z,19.21
2023-02-07T04:58:37.210Z,18.44
2023-02-07T04:59:40.383Z,20.17
2023-02-07T05:00:43.445Z,20.26
2023-02-07T05:01:46.649Z,19.05
2023-02-07T05:02:49.735Z,19.41
2023-02-07T05:03:52.796Z,19.11
2023-02-07T05:04:55.874Z,19.53
2023-02-07T05:05:58.923Z,19.06
2023-02-07T05:07:01.888Z,20.03
2023-02-07T05:08:05.170Z,19.72
2023-02-07T05:09:08.248Z,19.44
2023-02-07T05:10:12.028Z,18.26
2023-02-07T05:11:15.078Z,18.34
2023-02-07T05:12:18.179Z,18.56
2023-02-07T05:13:21.430Z,18.04
2023-02-07T05:14:24.564Z,20.11
2023-02-07T05:15:28.023Z,19.42
2023-02-07T05:16:31.210Z,16.80
2023-02-07T05:17:34.466Z,18.79
2023-02-07T05:18:37.561Z,18.40
2023-02-07T05:19:40.635Z,17.86
2023-02-07T05:20:44.123Z,18.29
2023-02-07T05:21:47.193Z,19.40
2023-02-07T05:22:50.383Z,19.87
2023-02-07T05:23:53.525Z,19.42
2023-02-07T05:24:56.596Z,19.36
2023-02-07T05:25:59.558Z,19.12
2023-02-07T05:27:02.773Z,20.41
2023-02-07T05:28:05.878Z,19.44
2023-02-07T05:29:09.026Z,19.69
2023-02-07T05:30:13.119Z,18.82
2023-02-07T05:31:16.515Z,19.39
2023-02-07T05:32:38.965Z,20.09
2023-02-07T05:33:42.112Z,19.37
2023-02-07T05:34:45.178Z,19.54
2023-02-07T05:35:48.222Z,18.57
2023-02-07T05:36:51.355Z,19.64
2023-02-07T05:37:54.397Z,18.73
2023-02-07T05:38:57.436Z,19.44
2023-02-07T05:40:00.397Z,19.19
2023-02-07T05:41:03.457Z,19.64
2023-02-07T05:42:06.419Z,19.94
2023-02-07T05:43:10.694Z,18.75
2023-02-07T05:44:13.850Z,17.76
2023-02-07T05:45:16.911Z,19.66
2023-02-07T05:46:20.155Z,19.20
2023-02-07T05:47:23.252Z,20.43
2023-02-07T05:48:26.312Z,19.49
2023-02-07T05:49:29.364Z,19.43
2023-02-07T05:50:32.394Z,20.14
2023-02-07T05:51:41.624Z,18.97
2023-02-07T05:52:45.084Z,19.84
2023-02-07T05:53:48.222Z,20.30
2023-02-07T05:54:51.413Z,20.08
2023-02-07T05:55:54.459Z,20.17
2023-02-07T05:56:57.515Z,20.28
2023-02-07T05:58:00.705Z,18.82
2023-02-07T05:59:03.778Z,19.59
2023-02-07T06:00:09.146Z,19.66
2023-02-07T06:01:14.611Z,20.04
2023-02-07T06:02:17.758Z,18.90
2023-02-07T06:03:20.888Z,19.79
2023-02-07T06:04:23.934Z,19.09
2023-02-07T06:05:28.657Z,19.04
2023-02-07T06:06:31.649Z,19.84
2023-02-07T06:07:34.804Z,17.71
2023-02-07T06:08:37.847Z,18.55
2023-02-07T06:09:41.036Z,18.84
2023-02-07T06:10:44.213Z,18.15
2023-02-07T06:11:47.174Z,17.57
2023-02-07T06:12:50.239Z,18.34
2023-02-07T06:13:53.287Z,18.32
2023-02-07T06:14:56.248Z,18.34
2023-02-07T06:15:59.241Z,16.91
2023-02-07T06:17:02.343Z,18.92
2023-02-07T06:18:05.605Z,17.82
2023-02-07T06:19:10.662Z,16.51
2023-02-07T06:20:14.862Z,18.29
2023-02-07T06:21:18.028Z,17.36
2023-02-07T06:22:21.205Z,17.06
2023-02-07T06:23:24.165Z,17.47
2023-02-07T06:24:27.448Z,17.72
2023-02-07T06:25:30.668Z,17.84
2023-02-07T06:26:33.936Z,18.52
2023-02-07T06:27:38.390Z,15.79
2023-02-07T06:28:41.388Z,17.33
2023-02-07T06:29:44.475Z,16.09
2023-02-07T06:30:47.747Z,17.86
2023-02-07T06:31:50.867Z,17.84
2023-02-07T06:32:53.934Z,16.21
2023-02-07T06:33:57.009Z,16.48
2023-02-07T06:35:00.101Z,17.94
2023-02-07T06:36:03.484Z,16.74
2023-02-07T06:37:06.571Z,16.21
2023-02-07T06:38:09.640Z,17.77
2023-02-07T06:39:13.025Z,16.05
2023-02-07T06:40:17.026Z,16.44
2023-02-07T06:41:20.321Z,16.94
2023-02-07T06:42:23.381Z,17.14
2023-02-07T06:43:26.545Z,17.29
2023-02-07T06:44:29.644Z,17.21
2023-02-07T06:45:32.768Z,17.58
2023-02-07T06:46:35.952Z,16.81
2023-02-07T06:47:39.266Z,17.13
2023-02-07T06:48:42.450Z,16.39
2023-02-07T06:49:45.622Z,17.51
2023-02-07T06:50:51.424Z,16.43
2023-02-07T06:51:54.788Z,17.32
2023-02-07T06:53:01.434Z,16.03
2023-02-07T06:54:06.422Z,15.52
2023-02-07T06:55:09.631Z,16.42
2023-02-07T06:56:12.995Z,15.47
2023-02-07T06:57:16.188Z,15.99
2023-02-07T06:58:19.337Z,15.59
2023-02-07T06:59:22.515Z,15.89
2023-02-07T07:00:25.743Z,16.31
2023-02-07T07:01:28.951Z,15.13
2023-02-07T07:02:32.144Z,15.98
2023-02-07T07:03:35.276Z,15.65
2023-02-07T07:04:38.235Z,15.61
2023-02-07T07:05:41.871Z,16.06
2023-02-07T07:06:44.738Z,15.05
2023-02-07T07:07:48.703Z,15.02
2023-02-07T07:08:51.911Z,15.06
2023-02-07T07:09:54.951Z,15.54
2023-02-07T07:10:58.013Z,15.64
2023-02-07T07:12:00.999Z,15.89
2023-02-07T07:13:04.184Z,16.52
2023-02-07T07:14:07.238Z,17.16
2023-02-07T07:15:10.312Z,16.99
2023-02-07T07:16:13.730Z,16.11
2023-02-07T07:17:16.756Z,16.23
2023-02-07T07:18:19.939Z,16.51
2023-02-07T07:19:23.011Z,15.53
2023-02-07T07:20:26.054Z,16.67
2023-02-07T07:21:29.023Z,17.14
2023-02-07T07:22:32.120Z,17.36
2023-02-07T07:23:35.478Z,16.26
2023-02-07T07:24:38.572Z,15.78
2023-02-07T07:25:41.654Z,18.78
2023-02-07T07:26:49.872Z,18.20
2023-02-07T07:27:49.878Z,16.93
2023-02-07T07:28:54.721Z,15.51
2023-02-07T07:29:57.799Z,15.70
2023-02-07T07:31:06.537Z,15.46
2023-02-07T07:32:19.910Z,14.50
2023-02-07T07:33:17.555Z,14.34
2023-02-07T07:34:20.585Z,14.28
2023-02-07T07:35:24.558Z,15.53
2023-02-07T07:36:27.949Z,14.92
2023-02-07T07:37:31.444Z,14.15
2023-02-07T07:38:34.901Z,14.71
2023-02-07T07:39:38.063Z,14.16
2023-02-07T07:40:41.430Z,14.28
2023-02-07T07:41:44.862Z,14.60
2023-02-07T07:42:48.508Z,15.02
2023-02-07T07:43:54.572Z,14.51
2023-02-07T07:44:57.768Z,15.65
2023-02-07T07:46:01.758Z,15.65
2023-02-07T07:47:04.987Z,14.54
2023-02-07T07:48:08.278Z,14.58
2023-02-07T07:49:11.559Z,15.66
2023-02-07T07:50:14.962Z,14.87
2023-02-07T07:51:18.226Z,15.53
2023-02-07T07:52:21.397Z,15.82
2023-02-07T07:53:24.706Z,15.19
2023-02-07T07:54:27.730Z,16.47
2023-02-07T07:55:30.840Z,16.31
2023-02-07T07:56:34.919Z,15.70
2023-02-07T07:57:38.173Z,14.78
2023-02-07T07:58:41.245Z,16.74
2023-02-07T07:59:44.422Z,15.52
2023-02-07T08:00:47.748Z,14.66
2023-02-07T08:01:51.501Z,15.20
2023-02-07T08:02:54.579Z,15.82
2023-02-07T08:03:57.893Z,16.01
2023-02-07T08:05:01.538Z,16.18
2023-02-07T08:06:05.627Z,16.01
2023-02-07T08:07:08.804Z,16.29
2023-02-07T08:08:12.093Z,15.97
2023-02-07T08:09:15.199Z,16.48
2023-02-07T08:10:18.407Z,16.38
2023-02-07T08:11:21.497Z,15.28
2023-02-07T08:12:24.715Z,15.72
2023-02-07T08:13:32.329Z,16.76
2023-02-07T08:14:33.144Z,15.68
2023-02-07T08:15:36.499Z,15.98
2023-02-07T08:16:39.659Z,15.57
2023-02-07T08:17:42.730Z,16.19
2023-02-07T08:18:46.789Z,16.04
2023-02-07T08:19:50.022Z,16.64
2023-02-07T08:20:53.093Z,15.57
2023-02-07T08:21:56.189Z,16.02
2023-02-07T08:22:59.354Z,15.39
2023-02-07T08:24:02.652Z,16.66
2023-02-07T08:25:06.691Z,16.25
2023-02-07T08:26:11.097Z,16.06
2023-02-07T08:27:14.266Z,14.98
2023-02-07T08:28:18.694Z,14.38
2023-02-07T08:29:21.937Z,15.40
2023-02-07T08:30:25.403Z,14.16
2023-02-07T08:31:28.636Z,15.65
2023-02-07T08:32:31.964Z,15.78
2023-02-07T08:33:35.040Z,16.31
2023-02-07T08:34:38.232Z,14.92
2023-02-07T08:35:41.495Z,15.52
2023-02-07T08:36:44.805Z,15.88
2023-02-07T08:37:47.876Z,16.39
2023-02-07T08:38:51.475Z,17.12
2023-02-07T08:39:55.303Z,16.32
2023-02-07T08:40:58.557Z,15.52
2023-02-07T08:42:02.753Z,15.01
2023-02-07T08:43:07.631Z,15.03
2023-02-07T08:44:10.701Z,14.82
2023-02-07T08:45:15.487Z,14.56
2023-02-07T08:46:18.950Z,15.33
2023-02-07T08:47:22.103Z,14.21
2023-02-07T08:48:25.136Z,14.40
2023-02-07T08:49:28.439Z,15.18
2023-02-07T08:50:31.745Z,14.85
2023-02-07T08:51:34.987Z,14.39
2023-02-07T08:52:38.322Z,14.64
2023-02-07T08:53:41.414Z,14.76
2023-02-07T08:54:44.497Z,13.91
2023-02-07T08:55:47.881Z,14.54
2023-02-07T08:56:51.448Z,14.80
2023-02-07T08:57:54.661Z,13.75
2023-02-07T08:58:57.912Z,14.14
2023-02-07T09:00:01.448Z,13.54
2023-02-07T09:01:06.615Z,14.10
2023-02-07T09:02:11.962Z,13.34
2023-02-07T09:03:15.334Z,13.65
2023-02-07T09:04:18.411Z,14.18
2023-02-07T09:05:21.604Z,14.00
2023-02-07T09:06:25.614Z,15.33
2023-02-07T09:07:28.686Z,14.01
2023-02-07T09:08:31.639Z,14.18
2023-02-07T09:09:34.790Z,13.79
2023-02-07T09:10:38.706Z,14.18
2023-02-07T09:11:42.218Z,16.22
2023-02-07T09:12:45.403Z,15.66
2023-02-07T09:13:48.814Z,15.11
2023-02-07T09:14:52.050Z,13.86
2023-02-07T09:15:58.248Z,13.79
2023-02-07T09:17:01.470Z,13.97
2023-02-07T09:18:04.626Z,15.58
2023-02-07T09:19:08.031Z,14.66
2023-02-07T09:20:12.306Z,15.46
2023-02-07T09:21:15.789Z,14.62
2023-02-07T09:22:18.821Z,15.08
2023-02-07T09:23:23.417Z,14.24
2023-02-07T09:24:26.822Z,13.29
2023-02-07T09:25:30.008Z,13.29
2023-02-07T09:26:34.761Z,14.06
2023-02-07T09:27:37.891Z,13.29
2023-02-07T09:28:41.052Z,12.79
2023-02-07T09:29:44.222Z,13.01
2023-02-07T09:30:48.401Z,12.45
2023-02-07T09:31:51.928Z,13.44
2023-02-07T09:32:57.686Z,12.89
2023-02-07T09:34:02.125Z,12.73
2023-02-07T09:35:07.061Z,12.69
2023-02-07T09:36:25.196Z,13.26
2023-02-07T09:37:28.787Z,15.57
2023-02-07T09:38:32.903Z,15.48
2023-02-07T09:39:38.426Z,14.80
2023-02-07T09:40:43.151Z,13.67
2023-02-07T09:42:21.616Z,14.56
2023-02-07T09:43:29.491Z,11.95
2023-02-07T09:44:57.886Z,12.34
2023-02-07T09:46:05.453Z,14.27
2023-02-07T09:47:23.046Z,13.03
2023-02-07T09:48:32.644Z,13.21
2023-02-07T09:49:39.489Z,13.15
2023-02-07T09:50:46.235Z,12.37
2023-02-07T09:51:50.611Z,12.51
2023-02-07T09:52:57.151Z,12.56
2023-02-07T09:54:03.835Z,11.47
2023-02-07T09:55:22.906Z,10.92
2023-02-07T09:56:28.646Z,11.03
2023-02-07T09:57:41.525Z,11.40
2023-02-07T09:58:55.224Z,11.34
2023-02-07T10:00:04.948Z,11.24
2023-02-07T10:01:23.522Z,11.82
2023-02-07T10:02:36.178Z,11.91
2023-02-07T10:03:45.872Z,11.29
2023-02-07T10:04:51.469Z,12.35
2023-02-07T10:06:17.888Z,12.07
2023-02-07T10:07:12.761Z,11.98
2023-02-07T10:08:18.462Z,11.10
2023-02-07T10:09:40.386Z,12.28
2023-02-07T10:10:46.944Z,10.86
2023-02-07T10:12:02.565Z,11.37
2023-02-07T10:13:26.164Z,12.02
2023-02-07T10:14:56.890Z,12.12
2023-02-07T10:17:16.475Z,12.27
2023-02-07T10:18:29.714Z,11.37
2023-02-07T10:19:42.628Z,11.78
2023-02-07T10:20:55.577Z,11.97
2023-02-07T10:22:11.028Z,11.86
2023-02-07T10:23:29.841Z,11.56
2023-02-07T10:24:58.144Z,11.48
2023-02-07T10:31:05.025Z,10.41
2023-02-07T10:32:17.533Z,10.78
2023-02-07T10:33:24.313Z,10.21
2023-02-07T10:34:39.843Z,12.02
2023-02-07T10:35:45.681Z,11.61
2023-02-07T10:36:51.824Z,11.19
2023-02-07T10:37:58.422Z,10.69
2023-02-07T10:39:09.447Z,10.76
2023-02-07T10:40:13.973Z,10.29
2023-02-07T10:41:23.702Z,11.02
2023-02-07T10:42:28.758Z,10.90
2023-02-07T10:43:34.088Z,11.24
2023-02-07T10:44:37.100Z,11.04
2023-02-07T10:45:41.995Z,12.06
2023-02-07T10:48:48.517Z,11.22
2023-02-07T10:49:55.377Z,13.12
2023-02-07T10:51:02.270Z,12.60
2023-02-07T10:52:14.984Z,11.23
2023-02-07T10:53:49.094Z,11.08
2023-02-07T10:54:55.816Z,10.27
2023-02-07T10:55:59.011Z,9.40
2023-02-07T10:57:03.051Z,10.56
2023-02-07T10:58:21.252Z,9.97
2023-02-07T10:59:30.558Z,10.54
2023-02-07T11:00:34.334Z,10.80
2023-02-07T11:01:39.356Z,10.64
2023-02-07T11:02:54.340Z,11.17
2023-02-07T11:03:58.393Z,10.69
2023-02-07T11:05:16.969Z,10.81
2023-02-07T14:01:33.057Z,9.70
2023-02-07T14:02:45.198Z,9.47
2023-02-07T14:05:32.769Z,10.27
2023-02-07T14:06:42.003Z,9.73
2023-02-07T14:07:54.920Z,10.28
2023-02-07T14:09:01.637Z,9.77
2023-02-07T14:10:06.187Z,10.55
2023-02-07T14:11:21.735Z,9.71
2023-02-07T14:12:40.240Z,10.31
2023-02-07T14:13:43.610Z,9.68
2023-02-07T14:15:00.622Z,10.02
2023-02-07T14:16:01.569Z,9.98
2023-02-07T14:17:07.474Z,10.17
2023-02-07T14:18:40.174Z,9.76
2023-02-07T14:19:48.168Z,10.42
2023-02-07T14:21:00.807Z,10.09
2023-02-07T14:22:31.721Z,9.83
2023-02-07T14:25:07.152Z,9.49
2023-02-07T14:26:39.909Z,10.49
2023-02-07T14:27:52.637Z,10.40
2023-02-07T14:30:16.637Z,9.71
2023-02-07T14:31:23.259Z,10.86
2023-02-07T14:32:41.640Z,10.07
2023-02-07T14:33:48.265Z,10.65
2023-02-07T14:35:03.836Z,10.42
2023-02-07T14:36:16.814Z,10.81
2023-02-07T14:37:23.347Z,10.10
2023-02-07T14:38:39.241Z,9.67
2023-02-07T14:39:42.311Z,10.79
2023-02-07T14:40:54.414Z,11.04
2023-02-07T14:42:03.007Z,10.62
2023-02-07T14:43:09.527Z,10.12
2023-02-07T14:44:28.291Z,10.32
2023-02-07T14:45:34.682Z,9.31
2023-02-07T14:46:50.691Z,9.36
2023-02-07T14:47:53.750Z,8.99
2023-02-07T14:49:25.540Z,8.91
2023-02-07T14:50:30.092Z,9.43
2023-02-07T14:51:54.919Z,10.10
2023-02-07T14:53:00.000Z,9.26
2023-02-07T14:54:09.440Z,10.74
2023-02-07T14:55:21.900Z,10.07
2023-02-07T14:56:44.194Z,9.90
2023-02-07T14:58:02.767Z,9.63
2023-02-07T14:59:08.202Z,9.87
2023-02-07T15:00:15.892Z,9.21
2023-02-07T15:01:20.861Z,9.12
2023-02-07T15:02:42.446Z,7.96
2023-02-07T15:03:45.646Z,8.10
2023-02-07T15:04:48.788Z,8.33
2023-02-07T15:05:55.273Z,8.84
2023-02-07T15:06:59.400Z,9.02
2023-02-07T15:08:18.359Z,9.67
2023-02-07T15:09:27.432Z,10.67
2023-02-07T15:10:33.861Z,9.57
2023-02-07T15:11:36.997Z,11.19
2023-02-07T15:12:43.118Z,12.49
2023-02-07T15:13:49.163Z,11.93
2023-02-07T15:14:56.455Z,11.82
2023-02-07T15:16:18.247Z,10.62
2023-02-07T15:17:24.597Z,10.66
2023-02-07T15:18:31.524Z,11.52
2023-02-07T15:19:37.478Z,13.48
2023-02-07T15:20:41.259Z,14.77
2023-02-07T15:21:49.087Z,13.78
2023-02-07T15:22:55.047Z,14.22
2023-02-07T15:24:04.755Z,13.20
2023-02-07T15:25:11.481Z,12.43
2023-02-07T15:26:18.400Z,11.55
2023-02-07T15:27:27.660Z,11.17
2023-02-07T15:28:31.873Z,10.82
2023-02-07T15:29:37.485Z,9.93
2023-02-07T15:30:41.243Z,10.20
2023-02-07T15:31:44.812Z,10.09
2023-02-07T15:32:48.202Z,9.79
2023-02-07T15:33:54.850Z,10.70
2023-02-07T15:35:00.545Z,12.36
2023-02-07T15:36:09.185Z,12.04
2023-02-07T15:37:22.589Z,12.56
2023-02-07T15:38:27.490Z,11.77
2023-02-07T15:39:30.700Z,11.60
2023-02-07T15:40:33.928Z,10.74
2023-02-07T15:41:37.113Z,9.92
2023-02-07T15:42:57.835Z,11.43
2023-02-07T15:44:04.372Z,10.02
2023-02-07T15:45:19.550Z,10.56
2023-02-07T15:46:15.355Z,10.94
2023-02-07T15:47:35.639Z,10.58
2023-02-07T15:48:48.209Z,11.40
2023-02-07T15:50:00.935Z,10.86
2023-02-07T15:51:05.552Z,12.38
2023-02-07T15:52:18.201Z,12.04
2023-02-07T15:53:24.750Z,12.98
2023-02-07T15:54:28.655Z,12.38
2023-02-07T15:55:44.012Z,12.23
2023-02-07T15:56:50.665Z,11.58
2023-02-07T15:57:54.002Z,12.49
2023-02-07T15:59:02.516Z,13.78
2023-02-07T16:00:24.432Z,13.92
2023-02-07T16:01:29.637Z,13.12
2023-02-07T16:02:35.682Z,12.64
2023-02-07T16:03:46.984Z,12.84
2023-02-07T16:04:50.308Z,13.38
2023-02-07T16:06:03.463Z,12.95
2023-02-07T16:07:10.228Z,12.79
2023-02-07T16:08:34.861Z,13.24
2023-02-07T16:09:41.499Z,13.00
2023-02-07T16:10:44.755Z,13.42
2023-02-07T16:11:47.799Z,13.89
2023-02-07T16:13:02.862Z,13.65
2023-02-07T16:14:24.969Z,13.58
2023-02-07T16:15:31.730Z,13.57
2023-02-07T16:16:40.570Z,13.24
2023-02-07T16:17:43.885Z,13.06
2023-02-07T16:18:50.386Z,14.14
2023-02-07T16:19:53.569Z,13.25
2023-02-07T16:20:56.831Z,13.62
2023-02-07T16:22:07.350Z,13.15
2023-02-07T16:23:13.187Z,13.84
2023-02-07T16:24:19.794Z,13.61
2023-02-07T16:25:29.359Z,13.32
2023-02-07T16:26:32.595Z,12.03
2023-02-07T16:27:38.626Z,12.96
2023-02-07T16:28:42.457Z,13.67
2023-02-07T16:29:46.341Z,12.77
2023-02-07T16:30:50.187Z,13.34
2023-02-07T16:31:54.971Z,12.98
2023-02-07T16:32:58.134Z,12.84
2023-02-07T16:34:01.134Z,13.56
2023-02-07T16:35:07.982Z,13.86
2023-02-07T16:36:16.997Z,12.59
2023-02-07T16:37:20.102Z,13.24
2023-02-07T16:38:23.033Z,13.74
2023-02-07T16:39:26.340Z,13.65
2023-02-07T16:40:29.681Z,14.19
2023-02-07T16:41:35.811Z,14.25
2023-02-07T16:42:39.372Z,14.02
2023-02-07T16:43:42.414Z,15.48
2023-02-07T16:44:46.424Z,14.29
2023-02-07T16:45:49.704Z,14.69
2023-02-07T16:46:52.861Z,13.74
2023-02-07T16:47:58.565Z,13.08
2023-02-07T16:49:02.172Z,13.38
2023-02-07T16:50:08.941Z,13.86
2023-02-07T16:51:12.214Z,14.16
2023-02-07T16:52:15.462Z,15.11
2023-02-07T16:53:18.697Z,14.15
2023-02-07T16:54:22.307Z,12.97
2023-02-07T16:55:28.239Z,14.07
2023-02-07T16:56:32.292Z,13.57
2023-02-07T16:57:38.064Z,13.87
2023-02-07T16:58:42.148Z,13.71
2023-02-07T16:59:45.518Z,13.68
2023-02-07T17:00:48.757Z,13.18
2023-02-07T17:01:53.637Z,13.65
2023-02-07T17:02:58.323Z,13.44
2023-02-07T17:04:01.538Z,13.07
2023-02-07T17:05:05.347Z,13.13
2023-02-07T17:06:15.068Z,13.16
2023-02-07T17:07:18.274Z,13.93
2023-02-07T17:08:24.765Z,14.99
2023-02-07T17:09:28.028Z,14.35
2023-02-07T17:10:34.225Z,13.16
2023-02-07T17:11:38.403Z,14.53
2023-02-07T17:12:42.629Z,14.54
2023-02-07T17:13:45.991Z,13.24
2023-02-07T17:14:49.173Z,13.48
2023-02-07T17:15:52.504Z,13.15
2023-02-07T17:16:56.284Z,14.69
2023-02-07T17:17:59.636Z,15.20
2023-02-07T17:19:02.998Z,13.78
2023-02-07T17:20:28.235Z,13.75
2023-02-07T17:21:31.425Z,13.12
2023-02-07T17:22:34.532Z,13.60
2023-02-07T17:23:37.893Z,13.27
2023-02-07T17:24:41.192Z,12.66
2023-02-07T17:25:44.541Z,13.31
2023-02-07T17:26:51.477Z,14.36